createdAt,value
2022-08-09T00:01:39.880Z,20.64
2022-08-09T00:04:34.613Z,20.49
2022-08-09T00:07:18.622Z,20.51
2022-08-09T00:10:05.867Z,20.37
2022-08-09T00:12:54.620Z,20.37
2022-08-09T00:15:58.864Z,20.36
2022-08-09T00:18:42.180Z,20.45
2022-08-09T00:21:25.676Z,20.39
2022-08-09T00:24:09.198Z,20.30
2022-08-09T00:26:53.900Z,20.39
2022-08-09T00:29:39.189Z,20.31
2022-08-09T00:32:42.093Z,20.32
2022-08-09T00:35:25.338Z,20.29
2022-08-09T00:38:13.871Z,20.30
2022-08-09T00:40:58.491Z,20.31
2022-08-09T00:44:16.064Z,20.22
2022-08-09T00:46:57.740Z,20.29
2022-08-09T00:49:55.235Z,20.24
2022-08-09T00:52:39.738Z,20.31
2022-08-09T00:56:03.000Z,20.11
2022-08-09T00:58:27.818Z,19.94
2022-08-09T01:01:16.830Z,19.68
2022-08-09T01:04:08.031Z,19.64
2022-08-09T01:07:03.657Z,19.58
2022-08-09T01:10:00.034Z,19.65
2022-08-09T01:12:48.804Z,19.76
2022-08-09T01:15:51.730Z,19.75
2022-08-09T01:18:37.395Z,20.04
2022-08-09T01:21:44.751Z,20.03
2022-08-09T01:24:44.078Z,19.98
2022-08-09T01:27:37.296Z,20.16
2022-08-09T01:30:33.665Z,20.19
2022-08-09T01:33:30.499Z,19.98
2022-08-09T01:36:15.977Z,20.02
2022-08-09T01:39:02.633Z,19.94
2022-08-09T01:41:55.609Z,19.85
2022-08-09T01:44:46.010Z,19.92
2022-08-09T01:47:31.431Z,19.89
2022-08-09T01:50:14.909Z,19.78
2022-08-09T01:53:02.867Z,19.75
2022-08-09T01:56:04.470Z,19.72
2022-08-09T01:58:51.899Z,19.82
2022-08-09T02:01:59.539Z,19.76
2022-08-09T02:04:45.558Z,19.77
2022-08-09T02:08:41.353Z,19.82
2022-08-09T02:10:38.573Z,19.89
2022-08-09T02:13:26.124Z,19.80
2022-08-09T02:16:20.934Z,19.92
2022-08-09T02:19:18.834Z,19.99
2022-08-09T02:22:07.476Z,20.01
2022-08-09T02:24:54.859Z,20.02
2022-08-09T02:27:57.443Z,20.10
2022-08-09T02:30:46.355Z,20.17
2022-08-09T02:33:58.474Z,20.14
2022-08-09T02:36:42.229Z,20.06
2022-08-09T02:39:33.399Z,20.08
2022-08-09T02:42:28.478Z,20.03
2022-08-09T02:45:16.212Z,20.02
2022-08-09T02:48:04.217Z,19.89
2022-08-09T02:50:56.177Z,19.79
2022-08-09T02:53:52.919Z,19.51
2022-08-09T02:56:51.514Z,19.46
2022-08-09T02:59:40.020Z,19.33
2022-08-09T03:03:00.125Z,19.26
2022-08-09T03:05:45.073Z,19.19
2022-08-09T03:08:32.770Z,19.23
2022-08-09T03:11:29.584Z,19.27
2022-08-09T03:14:28.398Z,19.28
2022-08-09T03:17:16.439Z,19.36
2022-08-09T03:20:11.289Z,19.40
2022-08-09T03:22:58.295Z,19.38
2022-08-09T03:26:04.854Z,19.40
2022-08-09T03:28:55.429Z,19.36
2022-08-09T03:31:42.444Z,19.30
2022-08-09T03:34:26.046Z,19.30
2022-08-09T03:37:10.676Z,19.21
2022-08-09T03:40:14.027Z,19.30
2022-08-09T03:43:01.094Z,19.25
2022-08-09T03:46:04.404Z,19.20
2022-08-09T03:48:54.109Z,19.25
2022-08-09T03:51:55.107Z,19.19
2022-08-09T03:54:41.811Z,19.22
2022-08-09T03:57:25.192Z,19.24
2022-08-09T04:00:09.794Z,19.13
2022-08-09T04:02:57.360Z,19.16
2022-08-09T04:05:41.035Z,19.01
2022-08-09T04:08:29.109Z,19.02
2022-08-09T04:11:13.128Z,18.95
2022-08-09T04:14:53.117Z,18.85
2022-08-09T04:17:00.308Z,19.05
2022-08-09T04:19:51.424Z,19.02
2022-08-09T04:22:41.355Z,19.15
2022-08-09T04:25:27.525Z,19.15
2022-08-09T04:28:10.650Z,19.28
2022-08-09T04:30:55.629Z,19.31
2022-08-09T04:33:47.299Z,19.32
2022-08-09T04:36:36.453Z,19.37
2022-08-09T04:39:19.787Z,19.42
2022-08-09T04:42:03.561Z,19.54
2022-08-09T04:44:49.087Z,19.54
2022-08-09T04:47:45.226Z,19.66
2022-08-09T04:50:38.139Z,19.80
2022-08-09T04:53:22.670Z,19.85
2022-08-09T04:56:06.377Z,19.86
2022-08-09T04:58:50.838Z,19.91
2022-08-09T05:01:33.973Z,20.04
2022-08-09T05:04:17.225Z,19.98
2022-08-09T05:07:00.391Z,19.99
2022-08-09T05:09:49.708Z,20.05
2022-08-09T05:12:33.499Z,20.24
2022-08-09T05:15:38.835Z,20.33
2022-08-09T05:18:37.444Z,20.35
2022-08-09T05:21:24.891Z,20.52
2022-08-09T05:24:13.410Z,20.55
2022-08-09T05:26:58.965Z,20.67
2022-08-09T05:29:43.124Z,20.65
2022-08-09T05:32:30.247Z,20.75
2022-08-09T05:35:13.417Z,20.86
2022-08-09T05:37:58.345Z,20.99
2022-08-09T05:40:41.701Z,21.18
2022-08-09T05:43:28.955Z,21.30
2022-08-09T05:46:15.718Z,21.51
2022-08-09T05:48:59.382Z,21.79
2022-08-09T05:51:46.412Z,22.08
2022-08-09T05:54:29.810Z,22.41
2022-08-09T05:57:14.206Z,22.71
2022-08-09T06:00:02.124Z,22.92
2022-08-09T06:02:46.503Z,23.19
2022-08-09T06:05:57.368Z,23.57
2022-08-09T06:08:35.774Z,23.67
2022-08-09T06:11:20.514Z,23.87
2022-08-09T06:14:23.546Z,24.12
2022-08-09T06:17:09.262Z,24.42
2022-08-09T06:19:53.404Z,24.55
2022-08-09T06:22:37.254Z,24.86
2022-08-09T06:25:21.254Z,25.11
2022-08-09T06:28:05.506Z,25.33
2022-08-09T06:30:48.560Z,25.54
2022-08-09T06:33:40.898Z,25.75
2022-08-09T06:36:27.161Z,26.04
2022-08-09T06:39:12.448Z,26.23
2022-08-09T06:42:07.647Z,26.42
2022-08-09T06:44:54.357Z,26.63
2022-08-09T06:47:39.927Z,26.88
2022-08-09T06:50:26.542Z,27.25
2022-08-09T06:53:14.642Z,27.52
2022-08-09T06:55:59.285Z,27.85
2022-08-09T07:00:55.236Z,27.90
2022-08-09T07:01:54.478Z,28.22
2022-08-09T07:04:42.750Z,28.47
2022-08-09T07:08:00.085Z,28.43
2022-08-09T07:10:32.095Z,28.66
2022-08-09T07:13:27.646Z,28.96
2022-08-09T07:16:40.872Z,29.12
2022-08-09T07:19:23.087Z,29.35
2022-08-09T07:22:07.425Z,29.60
2022-08-09T07:24:55.920Z,29.97
2022-08-09T07:27:42.999Z,29.98
2022-08-09T07:30:36.608Z,30.24
2022-08-09T07:33:20.991Z,30.47
2022-08-09T07:36:04.459Z,30.98
2022-08-09T07:38:55.153Z,31.75
2022-08-09T07:41:43.214Z,32.45
2022-08-09T07:44:50.881Z,33.80
2022-08-09T07:47:31.335Z,35.32
2022-08-09T07:50:36.355Z,37.27
2022-08-09T07:53:36.428Z,37.94
2022-08-09T07:56:26.531Z,38.88
2022-08-09T07:59:15.724Z,40.51
2022-08-09T08:02:05.084Z,40.75
2022-08-09T08:04:49.345Z,41.38
2022-08-09T08:08:44.707Z,40.77
2022-08-09T08:10:40.246Z,41.34
2022-08-09T08:13:56.070Z,40.51
2022-08-09T08:16:51.061Z,41.23
2022-08-09T08:19:44.601Z,41.97
2022-08-09T08:22:29.339Z,42.05
2022-08-09T08:25:13.605Z,42.97
2022-08-09T08:27:57.535Z,41.95
2022-08-09T08:30:41.459Z,42.11
2022-08-09T08:33:26.009Z,41.73
2022-08-09T08:36:29.238Z,42.17
2022-08-09T08:39:13.938Z,41.84
2022-08-09T08:42:00.924Z,42.42
2022-08-09T08:44:46.295Z,42.16
2022-08-09T08:47:30.852Z,42.51
2022-08-09T08:50:18.681Z,43.22
2022-08-09T08:53:02.378Z,43.12
2022-08-09T08:55:47.275Z,42.84
2022-08-09T08:58:32.595Z,43.52
2022-08-09T09:01:20.750Z,42.91
2022-08-09T09:04:11.744Z,43.77
2022-08-09T09:06:58.929Z,43.93
2022-08-09T09:10:01.979Z,44.01
2022-08-09T09:12:50.125Z,43.11
2022-08-09T09:15:35.040Z,43.76
2022-08-09T09:18:18.128Z,42.81
2022-08-09T09:21:02.143Z,43.31
2022-08-09T09:23:49.964Z,42.78
2022-08-09T09:26:43.651Z,40.84
2022-08-09T09:29:58.035Z,40.00
2022-08-09T09:32:37.010Z,39.54
2022-08-09T09:35:21.587Z,39.63
2022-08-09T09:38:04.791Z,41.28
2022-08-09T09:40:49.582Z,42.28
2022-08-09T09:43:41.275Z,41.72
2022-08-09T09:46:43.564Z,41.91
2022-08-09T09:50:07.466Z,42.36
2022-08-09T09:52:53.984Z,42.63
2022-08-09T09:55:57.739Z,42.74
2022-08-09T09:58:50.168Z,44.07
2022-08-09T10:01:40.680Z,43.78
2022-08-09T10:04:30.908Z,41.16
2022-08-09T10:07:25.684Z,38.97
2022-08-09T10:10:09.649Z,37.97
2022-08-09T10:12:56.787Z,37.17
2022-08-09T10:16:08.928Z,36.16
2022-08-09T10:18:54.268Z,35.81
2022-08-09T10:21:45.860Z,37.40
2022-08-09T10:24:35.752Z,38.25
2022-08-09T10:27:24.894Z,40.14
2022-08-09T10:34:04.278Z,41.65
2022-08-09T10:36:21.698Z,41.76
2022-08-09T10:39:15.672Z,42.42
2022-08-09T10:42:01.543Z,40.23
2022-08-09T10:44:51.341Z,39.67
2022-08-09T10:48:16.332Z,40.69
2022-08-09T10:51:12.122Z,39.96
2022-08-09T10:54:04.951Z,39.66
2022-08-09T10:56:48.358Z,39.21
2022-08-09T10:59:43.089Z,38.59
2022-08-09T11:03:13.532Z,37.69
2022-08-09T11:06:18.712Z,36.52
2022-08-09T11:09:15.547Z,35.87
2022-08-09T11:12:14.918Z,35.75
2022-08-09T11:15:03.038Z,35.73
2022-08-09T11:17:56.818Z,35.13
2022-08-09T11:20:49.647Z,34.57
2022-08-09T11:24:00.020Z,34.39
2022-08-09T11:26:47.237Z,33.92
2022-08-09T11:30:06.334Z,33.46
2022-08-09T11:33:04.165Z,33.17
2022-08-09T11:35:56.532Z,33.10
2022-08-09T11:38:41.639Z,32.78
2022-08-09T11:41:38.391Z,32.54
2022-08-09T11:44:49.226Z,32.57
2022-08-09T11:47:46.549Z,32.66
2022-08-09T11:50:55.374Z,32.28
2022-08-09T11:54:00.620Z,31.66
2022-08-09T11:56:47.760Z,31.59
2022-08-09T11:59:33.597Z,31.41
2022-08-09T12:02:37.112Z,31.41
2022-08-09T12:05:23.081Z,31.26
2022-08-09T12:08:12.461Z,31.26
2022-08-09T12:11:05.037Z,30.77
2022-08-09T12:14:08.060Z,30.41
2022-08-09T12:16:56.321Z,30.41
2022-08-09T12:19:41.542Z,30.69
2022-08-09T12:22:26.639Z,30.75
2022-08-09T12:25:14.952Z,31.03
2022-08-09T12:29:15.549Z,31.15
2022-08-09T12:31:58.620Z,31.26
2022-08-09T12:34:33.459Z,31.28
2022-08-09T12:40:28.672Z,31.15
2022-08-09T12:43:15.383Z,30.83
2022-08-09T12:46:04.073Z,30.42
2022-08-09T12:48:47.758Z,30.06
2022-08-09T12:52:00.405Z,30.25
2022-08-09T12:56:11.157Z,30.23
2022-08-09T12:57:59.073Z,30.34
2022-08-09T13:00:48.493Z,30.13
2022-08-09T13:03:57.039Z,30.14
2022-08-09T13:06:39.288Z,30.03
2022-08-09T13:09:27.268Z,30.04
2022-08-09T13:12:14.044Z,29.99
2022-08-09T13:15:08.561Z,30.14
2022-08-09T13:18:05.501Z,30.25
2022-08-09T13:22:33.084Z,30.36
2022-08-09T13:24:16.694Z,30.32
2022-08-09T13:27:08.480Z,30.32
2022-08-09T13:30:03.081Z,30.34
2022-08-09T13:32:49.543Z,30.21
2022-08-09T13:36:39.026Z,30.05
2022-08-09T13:38:57.854Z,29.82
2022-08-09T13:41:58.265Z,29.71
2022-08-09T13:44:44.455Z,29.52
2022-08-09T13:47:48.979Z,29.39
2022-08-09T13:50:33.627Z,29.29
2022-08-09T13:53:18.272Z,29.28
2022-08-09T13:56:01.637Z,29.20
2022-08-09T13:58:45.573Z,29.19
2022-08-09T14:02:01.518Z,29.24
2022-08-09T14:04:33.484Z,29.22
2022-08-09T14:07:18.126Z,29.23
2022-08-09T14:10:01.360Z,29.25
2022-08-09T14:12:46.470Z,29.41
2022-08-09T14:16:06.508Z,29.37
2022-08-09T14:18:33.358Z,29.44
2022-08-09T14:21:18.632Z,29.35
2022-08-09T14:24:18.326Z,29.33
2022-08-09T14:27:19.921Z,29.41
2022-08-09T14:30:36.986Z,29.39
2022-08-09T14:33:11.557Z,29.44
2022-08-09T14:35:54.925Z,29.42
2022-08-09T14:38:38.255Z,29.51
2022-08-09T16:04:25.388Z,28.03
2022-08-09T16:07:12.668Z,27.90
2022-08-09T16:50:30.566Z,27.14
2022-08-09T16:52:28.621Z,26.96
2022-08-09T16:55:15.735Z,26.86
2022-08-09T16:58:08.733Z,26.74
2022-08-09T17:00:53.497Z,26.67
2022-08-09T17:03:38.131Z,26.55
2022-08-09T17:06:29.178Z,26.34
2022-08-09T17:09:44.948Z,26.13
2022-08-09T17:12:19.517Z,25.98
2022-08-09T17:15:31.514Z,25.88
2022-08-09T17:18:07.313Z,25.81
2022-08-09T17:20:53.993Z,25.72
2022-08-09T17:24:27.317Z,25.65
2022-08-09T17:26:42.045Z,25.57
2022-08-09T17:29:31.787Z,25.57
2022-08-09T17:32:26.490Z,25.53
2022-08-09T17:35:17.957Z,25.49
2022-08-09T17:38:02.258Z,25.42
2022-08-09T17:40:59.232Z,25.37
2022-08-09T17:43:46.882Z,25.33
2022-08-09T17:46:34.481Z,25.28
2022-08-09T17:49:18.788Z,25.18
2022-08-09T17:52:02.751Z,25.14
2022-08-09T17:54:46.956Z,25.04
2022-08-09T17:58:03.122Z,24.94
2022-08-09T18:00:46.466Z,24.87
2022-08-09T18:03:31.732Z,24.87
2022-08-09T18:06:30.875Z,24.82
2022-08-09T18:09:16.221Z,24.77
2022-08-09T18:12:14.399Z,24.69
2022-08-09T18:15:01.710Z,24.61
2022-08-09T18:18:03.666Z,24.55
2022-08-09T18:20:57.099Z,24.49
2022-08-09T18:24:11.406Z,24.48
2022-08-09T18:26:49.411Z,24.31
2022-08-09T18:30:39.573Z,24.23
2022-08-09T18:32:37.351Z,24.23
2022-08-09T18:35:20.522Z,24.29
2022-08-09T18:38:24.095Z,24.22
2022-08-09T18:41:10.525Z,24.24
2022-08-09T18:43:59.425Z,24.24
2022-08-09T18:47:07.759Z,24.09
2022-08-09T18:49:52.045Z,24.03
2022-08-09T18:52:35.715Z,23.93
2022-08-09T18:55:29.230Z,23.82
2022-08-09T18:58:32.078Z,23.54
2022-08-09T19:01:15.533Z,23.40
2022-08-09T19:04:06.306Z,23.21
2022-08-09T19:06:53.124Z,23.24
2022-08-09T19:10:14.173Z,23.21
2022-08-09T19:12:41.110Z,23.15
2022-08-09T19:15:28.766Z,23.10
2022-08-09T19:18:17.310Z,23.09
2022-08-09T19:21:16.651Z,23.02
2022-08-09T19:24:31.917Z,22.92
2022-08-09T19:27:10.804Z,22.92
2022-08-09T19:30:24.591Z,22.77
2022-08-09T19:33:00.771Z,22.69
2022-08-09T19:35:57.164Z,22.62
2022-08-09T19:38:41.841Z,22.56
2022-08-09T19:41:33.245Z,22.44
2022-08-09T19:44:20.087Z,22.46
2022-08-09T19:47:05.524Z,22.41
2022-08-09T19:50:09.844Z,22.44
2022-08-09T19:52:52.432Z,22.34
2022-08-09T19:55:52.974Z,22.32
2022-08-09T19:58:40.160Z,22.20
2022-08-09T20:01:24.534Z,21.98
2022-08-09T20:04:36.711Z,22.01
2022-08-09T20:07:21.118Z,21.98
2022-08-09T20:10:06.952Z,21.90
2022-08-09T20:13:01.139Z,21.82
2022-08-09T20:16:32.902Z,21.67
2022-08-09T20:19:03.909Z,21.66
2022-08-09T20:21:56.391Z,21.53
2022-08-09T20:24:41.044Z,21.58
2022-08-09T20:27:24.355Z,21.45
2022-08-09T20:30:14.036Z,21.39
2022-08-09T20:33:02.710Z,21.40
2022-08-09T20:35:50.719Z,21.47
2022-08-09T20:39:06.683Z,21.28
2022-08-09T20:41:38.081Z,21.23
2022-08-09T20:44:26.862Z,21.20
2022-08-09T20:47:45.652Z,21.17
2022-08-09T20:50:47.495Z,21.15
2022-08-09T20:53:35.821Z,21.17
2022-08-09T20:56:25.934Z,21.00
2022-08-09T20:59:09.963Z,21.11
2022-08-09T21:01:53.587Z,21.13
2022-08-09T21:05:51.486Z,21.16
2022-08-09T21:07:44.507Z,21.17
2022-08-09T21:10:30.454Z,20.91
2022-08-09T21:13:13.953Z,20.85
2022-08-09T21:15:57.367Z,20.93
2022-08-09T21:20:02.455Z,20.97
2022-08-09T21:21:56.378Z,20.89
2022-08-09T21:24:55.810Z,21.10
2022-08-09T21:27:52.713Z,21.07
2022-08-09T21:30:37.068Z,20.91
2022-08-09T21:33:23.604Z,20.95
2022-08-09T21:36:07.493Z,20.97
2022-08-09T21:38:57.561Z,20.89
2022-08-09T21:42:05.437Z,20.95
2022-08-09T21:44:46.062Z,20.95
2022-08-09T21:47:29.156Z,20.82
2022-08-09T21:50:17.369Z,21.00
2022-08-09T21:53:05.629Z,20.90
2022-08-09T21:55:48.999Z,21.00
2022-08-09T21:58:34.169Z,20.84
2022-08-09T22:01:26.126Z,20.76
2022-08-09T22:04:22.519Z,20.94
2022-08-09T22:07:39.948Z,21.01
2022-08-09T22:10:25.109Z,20.96
2022-08-09T22:13:11.544Z,20.95
2022-08-09T22:15:56.130Z,21.01
2022-08-09T22:18:53.080Z,21.06
2022-08-09T22:21:49.610Z,20.94
2022-08-09T22:24:33.686Z,20.92
2022-08-09T22:27:16.787Z,20.95
2022-08-09T22:30:00.138Z,21.07
2022-08-09T22:32:44.883Z,20.98
2022-08-09T22:36:01.956Z,20.83
2022-08-09T22:38:31.509Z,20.70
2022-08-09T22:41:14.690Z,20.87
2022-08-09T22:44:02.574Z,20.78
2022-08-09T22:48:14.810Z,20.70
2022-08-09T22:49:53.907Z,20.56
2022-08-09T22:52:37.166Z,20.44
2022-08-09T22:55:22.790Z,20.42
2022-08-09T22:58:09.168Z,20.37
2022-08-09T23:01:05.520Z,20.31
2022-08-09T23:04:05.556Z,20.23
2022-08-09T23:07:11.240Z,20.23
2022-08-09T23:09:57.104Z,20.24
2022-08-09T23:12:40.224Z,20.23
2022-08-09T23:15:23.520Z,20.26
2022-08-09T23:18:07.008Z,20.26
2022-08-09T23:20:50.037Z,20.29
2022-08-09T23:23:34.705Z,20.24
2022-08-09T23:26:17.767Z,20.14
2022-08-09T23:29:00.872Z,20.08
2022-08-09T23:31:44.214Z,19.99
2022-08-09T23:34:27.439Z,19.90
2022-08-09T23:37:10.664Z,20.00
2022-08-09T23:39:55.210Z,19.99
2022-08-09T23:42:38.404Z,19.94
2022-08-09T23:45:37.206Z,19.92
2022-08-09T23:48:21.537Z,19.84
2022-08-09T23:51:04.863Z,19.76
2022-08-09T23:53:50.631Z,19.91
2022-08-09T23:56:52.540Z,19.90
2022-08-09T23:59:55.827Z,19.83
